Terminal Aerodrome Forecast
Issued by NWS

Home | Current Version | Previous Version | Text Only | Print | Product List | Glossary On
Versions: 1 2 3 4 5 6 7 8 9 10 11 12
622
FTUS45 KRIW 031122
TAFBPI
TAF
KBPI 031122Z 0312/0412 33008KT P6SM SCT070
     FM031400 29007KT P6SM FEW120 SCT250
     FM040900 34005KT P6SM BKN070=

USA.gov is the U.S. government's official web portal to all federal, state and local government web resources and services.